Time;durP1;ratioP1;P1;durP2;ratioP2;P2;SDS_P1;SDS_P2;PMS_P1;PMS_P2;Temp;Humidity;BMP_temperature;BMP_pressure;BME280_temperature;BME280_humidity;BME280_pressure;Samples;Min_cycle;Max_cycle;Signal;HPM_P1;HPM_P2
2023/06/02 04:02:12;;;;;;;3.95;1.17;;;10.80;99.90;;;;;;5176516;23;20235;-71
2023/06/02 04:04:38;;;;;;;4.80;1.70;;;10.90;99.90;;;;;;4983694;28;20205;-71
2023/06/02 04:07:05;;;;;;;2.78;1.83;;;10.90;99.90;;;;;;4987136;28;20204;-71
2023/06/02 04:09:32;;;;;;;3.95;1.25;;;11.00;99.90;;;;;;4988108;28;20204;-71
2023/06/02 04:11:59;;;;;;;6.30;3.30;;;11.00;99.90;;;;;;4990260;28;20297;-71
2023/06/02 04:14:27;;;;;;;2.00;1.90;;;11.10;99.90;;;;;;4990354;28;20206;-71
2023/06/02 04:16:54;;;;;;;6.20;2.22;;;11.20;99.90;;;;;;4978916;28;20211;-71
2023/06/02 04:19:22;;;;;;;3.13;2.03;;;11.30;99.90;;;;;;4980214;28;20226;-71
2023/06/02 04:21:49;;;;;;;1.80;1.70;;;11.40;99.90;;;;;;4989089;28;20232;-71
2023/06/02 04:24:15;;;;;;;2.63;1.90;;;11.70;99.90;;;;;;4990757;28;20275;-71
2023/06/02 04:26:42;;;;;;;5.93;2.00;;;12.30;99.90;;;;;;4991965;28;20474;-71
2023/06/02 04:29:08;;;;;;;7.93;2.77;;;12.70;99.90;;;;;;4987472;28;20466;-71
2023/06/02 04:31:39;;;;;;;2.07;1.93;;;13.00;99.90;;;;;;4990293;28;20569;-71
2023/06/02 04:34:06;;;;;;;7.73;2.73;;;13.50;99.90;;;;;;4981674;28;20459;-71
2023/06/02 04:36:36;;;;;;;5.50;1.57;;;13.80;99.90;;;;;;4982232;28;20470;-71
2023/06/02 04:39:03;;;;;;;1.77;1.67;;;14.20;99.90;;;;;;4983933;28;20495;-71
2023/06/02 04:41:31;;;;;;;3.47;1.40;;;14.60;99.90;;;;;;4988728;28;20487;-72
2023/06/02 04:43:58;;;;;;;2.00;1.70;;;14.80;99.90;;;;;;4988315;28;20577;-72
2023/06/02 04:46:26;;;;;;;1.03;1.00;;;14.80;99.90;;;;;;4985625;28;20475;-71
2023/06/02 04:48:53;;;;;;;3.50;1.47;;;14.90;99.90;;;;;;4990385;28;20944;-71
2023/06/02 04:51:20;;;;;;;4.87;1.17;;;15.00;99.90;;;;;;4983700;28;20491;-71
2023/06/02 04:53:48;;;;;;;2.17;2.03;;;15.10;99.90;;;;;;4981661;28;20849;-72
2023/06/02 04:56:14;;;;;;;2.80;1.77;;;15.20;99.90;;;;;;4983594;28;20467;-72
2023/06/02 04:58:41;;;;;;;1.43;1.33;;;15.50;99.90;;;;;;4987579;28;20471;-72
2023/06/02 05:01:08;;;;;;;8.07;2.13;;;15.60;99.90;;;;;;4988732;28;20526;-71
2023/06/02 05:03:34;;;;;;;3.57;1.63;;;15.60;99.90;;;;;;4987540;28;20495;-72
2023/06/02 05:06:02;;;;;;;2.50;1.47;;;15.90;99.90;;;;;;4985197;28;20577;-71
2023/06/02 05:08:28;;;;;;;1.90;1.23;;;16.30;99.90;;;;;;4989829;28;20467;-71
2023/06/02 05:10:56;;;;;;;1.90;1.40;;;16.70;99.90;;;;;;4989752;28;20967;-71
2023/06/02 05:13:23;;;;;;;2.90;1.90;;;16.60;99.90;;;;;;4987462;28;20467;-72
2023/06/02 05:15:50;;;;;;;3.13;1.57;;;16.60;99.90;;;;;;4988508;28;20498;-72
2023/06/02 05:18:17;;;;;;;2.20;1.40;;;16.40;99.90;;;;;;4988945;28;20467;-72
2023/06/02 05:20:44;;;;;;;3.20;1.27;;;16.60;99.90;;;;;;4985270;28;20496;-72
2023/06/02 05:23:11;;;;;;;3.37;1.80;;;16.80;99.90;;;;;;4981633;28;20483;-72
2023/06/02 05:25:40;;;;;;;2.43;1.50;;;17.20;99.90;;;;;;4988093;28;20467;-72
2023/06/02 05:28:08;;;;;;;1.90;1.10;;;17.50;99.90;;;;;;4983884;28;20530;-73
2023/06/02 05:30:35;;;;;;;3.50;2.10;;;17.40;99.90;;;;;;4990257;28;21003;-72
2023/06/02 05:33:02;;;;;;;3.13;1.30;;;17.40;99.90;;;;;;4988243;28;20503;-72
2023/06/02 05:35:29;;;;;;;4.17;1.47;;;17.50;99.90;;;;;;4988159;28;20480;-73
2023/06/02 05:37:56;;;;;;;2.23;1.70;;;17.80;99.90;;;;;;4982329;28;20563;-72
2023/06/02 05:40:23;;;;;;;3.13;1.37;;;17.80;99.90;;;;;;4984931;28;22146;-71
2023/06/02 05:42:50;;;;;;;7.50;1.53;;;17.90;99.90;;;;;;4984649;28;20489;-72
2023/06/02 05:45:18;;;;;;;1.80;1.70;;;17.60;99.90;;;;;;4989116;28;20471;-73
2023/06/02 05:47:45;;;;;;;3.37;1.40;;;17.60;99.90;;;;;;4988380;28;20474;-72
2023/06/02 05:50:11;;;;;;;1.50;1.40;;;16.90;99.90;;;;;;4990118;28;20475;-72
2023/06/02 05:52:38;;;;;;;2.10;1.87;;;16.40;99.90;;;;;;4985837;28;20471;-72
2023/06/02 05:55:06;;;;;;;3.00;1.83;;;15.90;99.90;;;;;;4987598;28;20497;-72
2023/06/02 05:57:32;;;;;;;4.37;2.17;;;15.60;99.90;;;;;;4989408;28;20474;-72
2023/06/02 05:59:59;;;;;;;6.23;1.10;;;15.30;99.90;;;;;;4992404;28;20489;-72
2023/06/02 06:02:27;;;;;;;2.67;1.20;;;15.10;99.90;;;;;;4990000;28;21018;-72
2023/06/02 06:04:54;;;;;;;1.43;0.80;;;15.00;99.90;;;;;;4990243;28;20874;-72
2023/06/02 06:07:20;;;;;;;4.27;1.60;;;14.90;99.90;;;;;;4990653;28;20471;-72
2023/06/02 06:09:47;;;;;;;2.30;2.10;;;14.80;99.90;;;;;;4986062;28;20471;-71
2023/06/02 06:12:14;;;;;;;1.57;1.57;;;14.70;99.90;;;;;;4977897;28;20491;-72
2023/06/02 06:14:41;;;;;;;2.00;1.90;;;14.70;99.90;;;;;;4992933;28;20463;-72
2023/06/02 06:17:07;;;;;;;2.27;2.17;;;14.60;99.90;;;;;;4991699;28;20616;-72
2023/06/02 06:19:36;;;;;;;8.50;1.80;;;14.60;99.90;;;;;;4989237;28;20469;-72
2023/06/02 06:22:03;;;;;;;4.57;1.70;;;14.50;99.90;;;;;;4991452;28;20498;-72
2023/06/02 06:24:29;;;;;;;2.63;1.70;;;14.40;99.90;;;;;;4992555;28;20518;-72
2023/06/02 06:26:56;;;;;;;2.97;0.90;;;14.20;99.90;;;;;;4984723;28;20478;-73
2023/06/02 06:29:23;;;;;;;3.07;2.00;;;14.10;99.90;;;;;;4990583;28;20561;-71
2023/06/02 06:31:50;;;;;;;3.60;1.53;;;14.10;99.90;;;;;;4991618;28;20506;-72
2023/06/02 06:34:16;;;;;;;4.90;1.30;;;14.20;99.90;;;;;;4993356;28;20544;-72
2023/06/02 06:36:47;;;;;;;2.57;2.00;;;14.20;99.90;;;;;;4982402;28;20475;-72
2023/06/02 06:39:14;;;;;;;5.73;2.03;;;14.10;99.90;;;;;;4984830;28;20506;-72
2023/06/02 06:41:42;;;;;;;6.23;1.40;;;14.20;99.90;;;;;;4992426;28;20574;-72
2023/06/02 06:44:09;;;;;;;1.67;1.57;;;14.30;99.90;;;;;;4983908;28;20545;-71
2023/06/02 06:46:35;;;;;;;3.23;1.57;;;14.50;99.90;;;;;;4989077;28;20936;-71
2023/06/02 06:49:02;;;;;;;1.47;1.40;;;14.50;99.90;;;;;;4991835;28;20475;-72
2023/06/02 06:51:29;;;;;;;10.67;1.50;;;14.40;99.90;;;;;;4988164;28;20598;-72
2023/06/02 06:53:57;;;;;;;2.20;0.80;;;14.40;99.90;;;;;;4990580;28;20565;-70
2023/06/02 06:56:25;;;;;;;3.77;3.20;;;14.50;99.90;;;;;;4991776;28;20533;-71
2023/06/02 06:58:52;;;;;;;4.47;2.13;;;14.80;99.90;;;;;;4990560;28;20473;-71
2023/06/02 07:01:18;;;;;;;2.53;2.20;;;14.90;99.90;;;;;;4991500;28;20495;-70
2023/06/02 07:03:45;;;;;;;3.07;1.37;;;15.10;99.90;;;;;;4987777;28;20487;-71
2023/06/02 07:06:12;;;;;;;3.13;1.30;;;15.10;99.90;;;;;;4991933;28;20842;-71
2023/06/02 07:08:39;;;;;;;1.50;1.40;;;14.90;99.90;;;;;;4984497;28;20481;-71
2023/06/02 07:11:07;;;;;;;1.07;1.07;;;14.80;99.90;;;;;;4988718;28;20883;-71
2023/06/02 07:13:34;;;;;;;2.23;1.70;;;14.90;99.90;;;;;;4984034;28;20474;-71
2023/06/02 07:16:00;;;;;;;6.00;1.73;;;15.00;99.90;;;;;;4987612;28;20486;-71
2023/06/02 07:18:27;;;;;;;5.10;1.60;;;15.10;99.90;;;;;;4986924;28;20491;-71
2023/06/02 07:20:54;;;;;;;3.23;1.60;;;15.00;99.90;;;;;;4987385;28;20487;-71
2023/06/02 07:23:20;;;;;;;1.87;1.77;;;14.90;99.90;;;;;;4986520;28;20908;-71
2023/06/02 07:25:47;;;;;;;1.33;1.33;;;15.00;99.90;;;;;;4990316;28;20558;-71
2023/06/02 07:28:15;;;;;;;1.77;1.67;;;15.00;99.90;;;;;;4997992;28;20505;-71
2023/06/02 07:30:47;;;;;;;1.53;1.43;;;14.90;99.90;;;;;;4992843;28;20517;-71
2023/06/02 07:33:14;;;;;;;1.83;1.73;;;14.90;99.90;;;;;;4990783;28;20502;-71
2023/06/02 07:35:41;;;;;;;3.77;1.53;;;14.90;99.90;;;;;;4992805;28;20467;-71
2023/06/02 07:38:08;;;;;;;3.40;3.00;;;14.80;99.90;;;;;;4989413;28;20567;-71
2023/06/02 07:40:34;;;;;;;3.93;1.83;;;14.80;99.90;;;;;;4991842;28;20608;-71
2023/06/02 07:43:01;;;;;;;2.47;1.80;;;14.70;99.90;;;;;;4990940;28;20470;-71
2023/06/02 07:45:29;;;;;;;1.37;1.37;;;14.70;99.90;;;;;;4992225;28;20975;-71
2023/06/02 07:47:56;;;;;;;3.60;1.73;;;14.60;99.90;;;;;;4989929;28;20478;-71
2023/06/02 07:50:23;;;;;;;2.40;1.83;;;14.60;99.90;;;;;;4990456;28;20479;-73
2023/06/02 07:52:50;;;;;;;1.50;1.40;;;14.60;99.90;;;;;;4992102;28;20471;-71
2023/06/02 07:55:16;;;;;;;8.23;2.80;;;14.60;99.90;;;;;;4993255;28;20472;-72
2023/06/02 07:57:43;;;;;;;3.13;2.93;;;14.60;99.90;;;;;;4993550;28;20470;-72
2023/06/02 08:00:15;;;;;;;3.10;1.43;;;14.50;99.90;;;;;;4989505;28;20539;-72
2023/06/02 08:02:46;;;;;;;2.57;2.47;;;14.70;99.90;;;;;;4989608;28;20936;-72
2023/06/02 08:05:13;;;;;;;1.77;1.77;;;14.80;99.90;;;;;;4993384;28;21001;-72
2023/06/02 08:07:40;;;;;;;1.63;1.60;;;14.90;99.90;;;;;;4987227;28;20482;-72
2023/06/02 08:10:08;;;;;;;2.73;1.87;;;15.20;99.90;;;;;;4987179;28;20471;-72
2023/06/02 08:12:35;;;;;;;1.27;1.27;;;15.60;99.90;;;;;;4988162;28;20486;-71
2023/06/02 08:15:02;;;;;;;2.43;1.83;;;15.70;99.90;;;;;;4991936;28;20806;-71
2023/06/02 08:17:30;;;;;;;1.83;1.77;;;15.90;99.90;;;;;;4988037;28;20466;-71
2023/06/02 08:19:58;;;;;;;7.93;2.40;;;15.80;99.90;;;;;;4990009;28;20536;-71
2023/06/02 08:22:27;;;;;;;1.40;1.40;;;15.70;99.90;;;;;;4999673;23;20774;-75
2023/06/02 08:24:53;;;;;;;3.40;2.00;;;15.70;99.90;;;;;;4987408;28;20494;-75
2023/06/02 08:27:21;;;;;;;3.83;2.17;;;15.60;99.90;;;;;;4991031;28;20463;-75
2023/06/02 08:29:49;;;;;;;1.77;1.47;;;15.60;99.90;;;;;;4982203;28;20970;-75
2023/06/02 08:32:16;;;;;;;7.40;2.27;;;15.70;99.90;;;;;;4989476;28;20861;-76
2023/06/02 08:34:44;;;;;;;8.27;1.90;;;15.70;99.90;;;;;;4987512;28;20478;-75
2023/06/02 08:37:16;;;;;;;5.67;2.33;;;15.50;99.90;;;;;;4982864;28;20554;-75
2023/06/02 08:39:43;;;;;;;1.13;1.13;;;15.50;99.90;;;;;;4984576;28;20535;-74
2023/06/02 08:42:11;;;;;;;1.60;1.27;;;15.40;99.90;;;;;;4983087;28;20573;-76
2023/06/02 08:44:38;;;;;;;1.80;1.70;;;15.40;99.90;;;;;;4983672;28;20490;-76
2023/06/02 08:47:08;;;;;;;2.47;1.80;;;15.40;99.90;;;;;;4978761;28;20467;-75
2023/06/02 08:49:35;;;;;;;3.53;2.00;;;15.40;99.90;;;;;;4985718;28;20478;-75
2023/06/02 08:52:10;;;;;;;2.20;1.57;;;15.30;99.90;;;;;;4990293;28;20470;-74
2023/06/02 08:54:39;;;;;;;1.80;1.70;;;15.30;99.90;;;;;;4986769;28;20458;-75
2023/06/02 08:57:07;;;;;;;1.93;1.93;;;15.40;99.90;;;;;;4977662;28;20529;-74
2023/06/02 08:59:34;;;;;;;2.63;2.50;;;15.60;99.90;;;;;;4982534;28;20514;-74
2023/06/02 09:02:01;;;;;;;1.70;1.60;;;15.60;99.90;;;;;;4988652;28;20553;-75
2023/06/02 09:04:28;;;;;;;2.73;2.40;;;15.60;99.90;;;;;;4981119;28;20487;-76
2023/06/02 09:07:16;;;;;;;4.57;2.90;;;15.70;99.90;;;;;;4987340;28;20510;-75
2023/06/02 09:09:46;;;;;;;10.40;2.30;;;15.80;99.90;;;;;;4981264;28;20463;-76
2023/06/02 09:12:14;;;;;;;2.27;2.17;;;15.90;99.90;;;;;;4987148;28;20541;-75
2023/06/02 09:14:41;;;;;;;2.70;1.73;;;16.00;99.90;;;;;;4985931;28;20471;-75
2023/06/02 09:17:25;;;;;;;6.33;2.33;;;16.00;99.90;;;;;;4985768;28;20467;-75
2023/06/02 09:19:54;;;;;;;4.70;1.83;;;16.00;99.90;;;;;;4993609;28;20513;-75
2023/06/02 09:22:21;;;;;;;1.80;1.73;;;16.00;99.90;;;;;;4987773;28;20490;-75
2023/06/02 09:24:49;;;;;;;2.50;1.93;;;16.00;99.90;;;;;;4983383;28;20484;-76
2023/06/02 09:27:17;;;;;;;1.13;1.13;;;16.10;99.90;;;;;;4990282;28;20525;-73
2023/06/02 09:29:45;;;;;;;9.23;1.50;;;16.10;99.90;;;;;;4991306;28;20481;-75
2023/06/02 09:32:15;;;;;;;4.23;2.40;;;16.20;99.90;;;;;;4987382;28;20558;-75
2023/06/02 09:34:43;;;;;;;3.30;3.10;;;16.40;99.90;;;;;;4992701;28;20498;-75
2023/06/02 09:37:12;;;;;;;1.90;1.20;;;16.60;99.90;;;;;;4985776;28;20482;-75
2023/06/02 09:39:43;;;;;;;2.63;2.40;;;16.70;99.90;;;;;;4994827;28;20459;-75
2023/06/02 09:42:13;;;;;;;3.07;1.60;;;16.80;99.90;;;;;;4994388;28;20913;-74
2023/06/02 09:44:40;;;;;;;1.40;1.30;;;16.90;99.90;;;;;;4993643;28;20886;-75
2023/06/02 09:47:20;;;;;;;1.70;1.70;;;16.80;99.90;;;;;;4994325;28;20974;-75
2023/06/02 09:49:47;;;;;;;2.90;1.83;;;16.80;99.90;;;;;;4978368;28;20819;-75
2023/06/02 09:52:15;;;;;;;2.80;2.80;;;16.80;99.90;;;;;;4983258;28;21014;-75
2023/06/02 09:54:43;;;;;;;2.70;2.10;;;16.70;99.90;;;;;;4996624;28;21169;-75
2023/06/02 09:57:12;;;;;;;1.60;1.60;;;16.70;99.90;;;;;;4998198;28;20462;-74
2023/06/02 09:59:40;;;;;;;3.07;1.80;;;16.90;99.90;;;;;;4992766;28;20820;-73
2023/06/02 10:02:08;;;;;;;1.60;1.60;;;16.90;99.90;;;;;;4988211;28;20562;-74
2023/06/02 10:04:35;;;;;;;1.23;1.13;;;16.90;99.90;;;;;;4991936;28;20490;-74
2023/06/02 10:07:13;;;;;;;2.10;2.03;;;17.00;99.90;;;;;;4991671;28;20462;-75
2023/06/02 10:09:51;;;;;;;5.73;1.60;;;17.00;99.90;;;;;;4986102;28;20470;-73
2023/06/02 10:12:33;;;;;;;1.90;1.90;;;17.10;99.90;;;;;;4983790;28;20505;-75
2023/06/02 10:15:22;;;;;;;2.07;2.07;;;17.20;99.90;;;;;;4990821;28;20558;-73
2023/06/02 10:18:02;;;;;;;1.50;1.50;;;17.40;99.90;;;;;;4987572;28;20478;-75
2023/06/02 10:20:33;;;;;;;1.30;1.30;;;17.60;99.90;;;;;;4982692;28;20562;-75
2023/06/02 10:23:17;;;;;;;3.53;1.80;;;17.70;99.90;;;;;;4991048;28;21026;-73
2023/06/02 10:25:57;;;;;;;4.27;3.00;;;17.80;99.90;;;;;;4994102;28;20486;-75
2023/06/02 10:28:28;;;;;;;1.60;1.50;;;17.90;99.90;;;;;;4996847;28;20473;-75
2023/06/02 10:31:06;;;;;;;2.47;2.27;;;17.80;99.90;;;;;;4978505;28;20481;-74
2023/06/02 10:33:47;;;;;;;0.90;0.90;;;18.00;99.90;;;;;;4988870;28;20494;-75
2023/06/02 10:36:17;;;;;;;1.70;1.60;;;18.10;99.90;;;;;;4987736;28;20467;-73
2023/06/02 10:38:45;;;;;;;3.40;1.20;;;17.90;99.90;;;;;;4992814;28;20549;-74
2023/06/02 10:41:13;;;;;;;1.10;1.10;;;17.80;99.90;;;;;;4985035;28;20463;-75
2023/06/02 10:44:21;;;;;;;4.70;1.47;;;17.60;99.90;;;;;;4986463;28;20544;-74
2023/06/02 10:46:47;;;;;;;1.10;1.10;;;17.60;99.90;;;;;;4990792;28;20451;-74
2023/06/02 10:49:47;;;;;;;1.10;1.10;;;17.50;99.90;;;;;;4989914;28;20471;-73
2023/06/02 10:52:14;;;;;;;1.77;1.67;;;17.40;99.90;;;;;;4990403;28;20483;-74
2023/06/02 10:54:41;;;;;;;0.90;0.90;;;17.30;99.90;;;;;;4990487;28;20467;-74
2023/06/02 10:57:09;;;;;;;0.93;0.93;;;17.50;99.90;;;;;;4991803;28;20550;-73
2023/06/02 10:59:37;;;;;;;1.00;1.00;;;17.80;99.90;;;;;;4993714;28;20482;-73
2023/06/02 11:02:04;;;;;;;2.53;1.30;;;18.10;99.90;;;;;;4992859;28;20541;-73
2023/06/02 11:04:32;;;;;;;0.77;0.77;;;18.10;99.90;;;;;;4987954;28;20487;-73
2023/06/02 11:07:18;;;;;;;1.20;1.20;;;18.30;99.90;;;;;;4989954;28;20502;-76
2023/06/02 11:09:45;;;;;;;0.60;0.60;;;18.30;99.90;;;;;;4985498;28;20960;-74
2023/06/02 11:12:13;;;;;;;1.30;1.30;;;18.50;99.90;;;;;;4983473;28;20865;-75
2023/06/02 11:15:15;;;;;;;0.90;0.90;;;18.60;99.90;;;;;;4989832;28;20951;-73
2023/06/02 11:17:42;;;;;;;1.00;1.00;;;18.70;99.90;;;;;;4981496;28;20497;-74
2023/06/02 11:20:10;;;;;;;1.50;1.50;;;18.80;99.90;;;;;;4992450;28;20466;-74
2023/06/02 11:22:37;;;;;;;0.60;0.60;;;19.10;99.90;;;;;;4992935;28;21060;-74
2023/06/02 11:25:05;;;;;;;0.70;0.70;;;19.20;99.90;;;;;;4985476;28;20483;-74
2023/06/02 11:27:37;;;;;;;0.60;0.53;;;19.30;99.90;;;;;;4988387;28;20554;-73
2023/06/02 11:30:06;;;;;;;0.67;0.47;;;19.50;99.90;;;;;;4991958;28;20502;-73
2023/06/02 11:32:34;;;;;;;0.40;0.40;;;19.50;99.90;;;;;;4992337;28;21031;-73
2023/06/02 11:35:02;;;;;;;0.67;0.67;;;19.50;99.90;;;;;;4991269;28;20459;-74
2023/06/02 11:37:31;;;;;;;0.40;0.40;;;19.80;99.90;;;;;;4983094;28;20475;-74
2023/06/02 11:39:58;;;;;;;0.50;0.50;;;19.80;99.90;;;;;;4993016;28;20485;-74
2023/06/02 11:42:35;;;;;;;2.00;0.67;;;19.90;99.90;;;;;;4992618;28;20479;-74
2023/06/02 11:45:02;;;;;;;0.30;0.30;;;20.10;99.90;;;;;;4991588;28;20578;-73
2023/06/02 11:47:29;;;;;;;2.23;0.50;;;20.10;99.90;;;;;;4989723;28;20838;-74
2023/06/02 11:49:57;;;;;;;1.23;0.70;;;19.90;99.90;;;;;;4991633;28;20464;-74
2023/06/02 11:52:24;;;;;;;0.60;0.60;;;19.90;99.90;;;;;;4986851;28;20549;-75
2023/06/02 11:54:52;;;;;;;0.70;0.70;;;19.80;99.90;;;;;;4991970;28;20456;-74
2023/06/02 11:57:29;;;;;;;0.30;0.30;;;19.80;99.90;;;;;;4990719;28;20526;-74
2023/06/02 12:00:10;;;;;;;0.90;0.90;;;19.80;99.90;;;;;;4992902;28;20463;-75
2023/06/02 12:02:38;;;;;;;1.10;0.73;;;19.80;99.90;;;;;;4989390;28;20980;-73
2023/06/02 12:05:08;;;;;;;0.30;0.30;;;19.80;99.90;;;;;;4988723;28;20577;-74
2023/06/02 12:07:35;;;;;;;0.50;0.50;;;20.10;99.90;;;;;;4988934;28;20581;-75
2023/06/02 12:10:03;;;;;;;0.37;0.37;;;20.10;99.90;;;;;;4983716;28;20549;-74
2023/06/02 12:12:31;;;;;;;0.63;0.63;;;20.30;99.90;;;;;;4991832;28;20602;-75
2023/06/02 12:14:57;;;;;;;0.60;0.60;;;20.40;99.90;;;;;;4990573;28;20464;-74
2023/06/02 12:17:25;;;;;;;0.40;0.40;;;20.50;99.20;;;;;;4989844;28;20488;-74
2023/06/02 12:19:58;;;;;;;0.50;0.50;;;20.60;98.70;;;;;;4992136;28;20547;-75
2023/06/02 12:22:26;;;;;;;0.40;0.40;;;20.60;98.10;;;;;;4990450;28;20583;-75
2023/06/02 12:24:53;;;;;;;3.80;0.50;;;20.70;97.70;;;;;;4991931;28;20483;-74
2023/06/02 12:27:23;;;;;;;0.30;0.30;;;20.60;97.40;;;;;;4991317;28;20842;-73
2023/06/02 12:29:50;;;;;;;0.50;0.50;;;20.50;96.40;;;;;;4989524;28;20490;-74
2023/06/02 12:32:26;;;;;;;1.13;0.57;;;20.50;96.30;;;;;;4989978;28;20484;-74
2023/06/02 12:34:52;;;;;;;0.83;0.60;;;20.50;95.90;;;;;;4989624;28;20913;-75
2023/06/02 12:37:19;;;;;;;0.43;0.43;;;20.30;95.70;;;;;;4988373;28;20543;-75
2023/06/02 12:39:47;;;;;;;0.97;0.80;;;20.30;95.90;;;;;;4988048;28;20475;-75
2023/06/02 12:42:18;;;;;;;0.40;0.40;;;20.50;96.10;;;;;;4991019;28;20823;-75
2023/06/02 12:44:46;;;;;;;0.50;0.50;;;20.70;95.20;;;;;;4988812;28;20936;-73
2023/06/02 12:47:13;;;;;;;0.70;0.70;;;20.80;94.50;;;;;;4988636;28;20496;-73
2023/06/02 12:49:40;;;;;;;0.87;0.87;;;20.80;94.20;;;;;;4990023;28;20550;-73
2023/06/02 12:52:06;;;;;;;3.30;0.40;;;20.60;93.70;;;;;;4983350;28;20790;-73
2023/06/02 12:54:33;;;;;;;0.70;0.40;;;20.50;93.90;;;;;;4990618;28;20472;-74
2023/06/02 12:57:01;;;;;;;0.60;0.57;;;20.50;93.50;;;;;;4988154;28;20475;-74
2023/06/02 12:59:28;;;;;;;0.83;0.83;;;20.50;93.80;;;;;;4990871;28;20997;-72
2023/06/02 13:01:55;;;;;;;0.77;0.60;;;20.30;93.10;;;;;;4989913;28;20490;-72
2023/06/02 13:04:22;;;;;;;0.50;0.50;;;19.90;93.70;;;;;;4987682;28;20916;-74
2023/06/02 13:06:48;;;;;;;0.67;0.67;;;20.00;93.80;;;;;;4989752;28;20506;-73
2023/06/02 13:09:15;;;;;;;1.13;0.63;;;20.00;93.60;;;;;;4989597;28;20478;-74
2023/06/02 13:11:42;;;;;;;0.43;0.43;;;19.80;93.80;;;;;;4991508;28;20955;-74
2023/06/02 13:14:11;;;;;;;0.40;0.40;;;19.70;93.90;;;;;;4992201;28;20518;-73
2023/06/02 13:16:37;;;;;;;0.50;0.50;;;19.70;94.30;;;;;;4980964;28;20845;-74
2023/06/02 13:19:04;;;;;;;0.40;0.40;;;19.60;94.30;;;;;;4990801;28;20956;-74
2023/06/02 13:21:31;;;;;;;0.50;0.50;;;19.80;93.40;;;;;;4990919;28;20839;-74
2023/06/02 13:23:58;;;;;;;0.87;0.50;;;19.80;93.10;;;;;;4990670;28;20593;-75
2023/06/02 13:26:26;;;;;;;0.90;0.70;;;19.80;93.20;;;;;;4990940;28;20514;-74
2023/06/02 13:28:52;;;;;;;0.50;0.50;;;20.00;93.20;;;;;;4992041;28;20466;-74
2023/06/02 13:31:20;;;;;;;0.50;0.50;;;20.20;93.40;;;;;;4989936;28;20474;-73
2023/06/02 13:33:47;;;;;;;2.70;0.60;;;20.20;92.90;;;;;;4991768;28;20541;-74
2023/06/02 13:36:14;;;;;;;0.40;0.40;;;20.20;92.70;;;;;;4990785;28;20524;-74
2023/06/02 13:38:42;;;;;;;0.40;0.40;;;20.30;93.30;;;;;;4992643;28;20458;-74
2023/06/02 13:41:08;;;;;;;0.30;0.30;;;20.30;92.90;;;;;;4994243;28;20486;-75
2023/06/02 13:43:35;;;;;;;0.77;0.73;;;20.40;93.10;;;;;;4987449;28;20553;-74
2023/06/02 13:46:02;;;;;;;0.60;0.60;;;20.30;92.10;;;;;;4979953;28;20487;-74
2023/06/02 13:48:30;;;;;;;0.47;0.47;;;20.00;92.20;;;;;;4988355;28;20811;-74
2023/06/02 13:50:59;;;;;;;1.40;0.50;;;19.80;92.60;;;;;;4992903;28;20956;-73
2023/06/02 13:53:25;;;;;;;1.53;0.77;;;19.80;92.80;;;;;;4996472;28;20471;-73
2023/06/02 13:55:52;;;;;;;0.37;0.37;;;20.00;93.30;;;;;;5006727;28;20557;-72
2023/06/02 13:58:19;;;;;;;0.30;0.30;;;20.40;92.50;;;;;;5006081;28;20477;-73
2023/06/02 14:00:47;;;;;;;0.60;0.60;;;20.40;92.20;;;;;;5006733;28;20462;-73
2023/06/02 14:03:13;;;;;;;0.40;0.40;;;20.30;91.50;;;;;;4998368;28;20551;-70
2023/06/02 14:05:41;;;;;;;0.40;0.40;;;20.30;91.90;;;;;;4999684;28;20554;-74
2023/06/02 14:08:09;;;;;;;0.40;0.40;;;20.40;91.30;;;;;;4994865;28;20525;-74
2023/06/02 14:10:35;;;;;;;0.30;0.30;;;20.50;91.60;;;;;;4991883;28;20466;-75
2023/06/02 14:13:02;;;;;;;0.40;0.40;;;20.50;91.00;;;;;;4990339;28;21023;-74
2023/06/02 14:15:30;;;;;;;1.27;0.63;;;20.40;91.60;;;;;;4982351;28;20494;-75
2023/06/02 14:17:56;;;;;;;0.30;0.30;;;20.10;91.40;;;;;;4984942;28;20471;-73
2023/06/02 14:20:23;;;;;;;0.30;0.30;;;19.90;91.30;;;;;;4975448;28;20976;-74
2023/06/02 14:22:51;;;;;;;1.23;1.23;;;19.90;91.70;;;;;;4974495;28;20515;-74
2023/06/02 14:25:18;;;;;;;0.33;0.33;;;20.10;92.20;;;;;;4982598;28;20468;-75
2023/06/02 14:27:45;;;;;;;1.40;0.33;;;20.40;91.60;;;;;;4994689;28;20793;-74
2023/06/02 14:30:12;;;;;;;0.60;0.53;;;20.70;91.60;;;;;;4994815;28;20882;-73
2023/06/02 14:32:39;;;;;;;0.30;0.30;;;20.70;90.80;;;;;;4987045;28;20574;-73
2023/06/02 14:35:06;;;;;;;0.50;0.50;;;20.60;89.80;;;;;;4990445;28;20475;-74
2023/06/02 14:37:33;;;;;;;0.30;0.30;;;20.40;90.00;;;;;;4984549;28;20486;-73
2023/06/02 14:40:01;;;;;;;0.50;0.50;;;20.10;90.80;;;;;;4989487;28;20858;-74
2023/06/02 14:42:28;;;;;;;0.30;0.30;;;19.90;90.60;;;;;;4989860;28;20738;-74
2023/06/02 14:44:54;;;;;;;0.70;0.70;;;19.70;91.00;;;;;;4988023;28;20459;-74
2023/06/02 14:47:21;;;;;;;0.50;0.50;;;19.80;91.00;;;;;;4992358;28;20482;-73
2023/06/02 14:49:48;;;;;;;0.30;0.30;;;20.10;90.20;;;;;;4975176;28;20976;-74
2023/06/02 14:52:14;;;;;;;0.50;0.50;;;20.30;89.50;;;;;;4978831;28;20982;-74
2023/06/02 14:54:41;;;;;;;1.13;0.50;;;20.60;89.80;;;;;;4989067;28;21023;-73
2023/06/02 14:57:10;;;;;;;1.00;0.60;;;20.80;90.00;;;;;;4993192;28;20459;-74
2023/06/02 14:59:36;;;;;;;0.30;0.30;;;20.90;90.10;;;;;;4993949;28;20875;-75
2023/06/02 15:02:03;;;;;;;0.30;0.30;;;20.80;90.50;;;;;;4991384;28;20794;-75
2023/06/02 15:04:30;;;;;;;0.40;0.40;;;20.30;90.50;;;;;;4992923;28;20467;-76
2023/06/02 15:06:56;;;;;;;0.93;0.43;;;20.00;90.70;;;;;;4983385;28;20490;-75
2023/06/02 15:09:23;;;;;;;0.20;0.20;;;19.80;91.40;;;;;;4987610;28;20475;-77
2023/06/02 15:11:50;;;;;;;0.80;0.80;;;19.50;90.60;;;;;;4989313;28;20470;-75
2023/06/02 15:14:19;;;;;;;0.30;0.30;;;19.50;90.80;;;;;;4993821;28;20498;-74
2023/06/02 15:16:46;;;;;;;0.50;0.50;;;19.70;90.40;;;;;;4992698;28;20486;-75
2023/06/02 15:19:12;;;;;;;4.50;0.83;;;20.00;90.20;;;;;;4987370;28;20466;-74
2023/06/02 15:21:41;;;;;;;0.30;0.30;;;20.20;90.20;;;;;;4976424;28;20471;-72
2023/06/02 15:24:08;;;;;;;0.30;0.30;;;20.20;89.90;;;;;;4987898;28;20494;-74
2023/06/02 15:26:36;;;;;;;0.30;0.30;;;20.40;90.20;;;;;;4992549;28;20490;-75
2023/06/02 15:29:03;;;;;;;0.43;0.43;;;20.40;90.00;;;;;;4989532;28;21004;-74
2023/06/02 15:31:31;;;;;;;0.40;0.40;;;20.40;89.90;;;;;;4983619;28;20519;-73
2023/06/02 15:33:58;;;;;;;0.97;0.97;;;20.50;90.30;;;;;;4984260;28;20508;-74
2023/06/02 15:36:29;;;;;;;1.40;0.43;;;20.40;88.70;;;;;;4982923;28;21224;-73
2023/06/02 15:38:56;;;;;;;3.00;0.47;;;20.40;88.00;;;;;;4988486;28;20822;-74
2023/06/02 15:41:22;;;;;;;0.57;0.53;;;20.50;87.60;;;;;;4989360;28;20463;-74
2023/06/02 15:43:49;;;;;;;0.40;0.30;;;20.40;87.60;;;;;;4980955;28;20852;-73
2023/06/02 15:46:15;;;;;;;0.70;0.30;;;20.20;88.00;;;;;;4984541;28;20483;-74
2023/06/02 15:48:44;;;;;;;0.30;0.30;;;20.00;88.30;;;;;;4992151;28;20462;-73
2023/06/02 15:51:11;;;;;;;0.40;0.40;;;19.80;88.20;;;;;;4987938;28;20459;-73
2023/06/02 15:53:38;;;;;;;2.43;0.80;;;19.80;88.80;;;;;;4982141;28;20495;-74
2023/06/02 15:56:05;;;;;;;4.20;0.60;;;19.80;89.40;;;;;;4985167;28;20467;-73
2023/06/02 15:58:32;;;;;;;0.50;0.50;;;19.60;88.20;;;;;;4989726;28;20477;-73
2023/06/02 16:00:59;;;;;;;0.27;0.27;;;19.50;87.70;;;;;;4977691;28;20475;-74
2023/06/02 16:03:25;;;;;;;2.27;0.50;;;19.40;88.70;;;;;;4985400;28;20482;-73
2023/06/02 16:05:53;;;;;;;0.50;0.20;;;19.50;89.20;;;;;;4990819;28;20466;-74
2023/06/02 16:08:20;;;;;;;2.13;0.80;;;19.60;88.90;;;;;;4983318;28;20474;-75
2023/06/02 16:10:47;;;;;;;0.30;0.30;;;19.70;87.90;;;;;;4987773;28;20482;-75
2023/06/02 16:13:13;;;;;;;0.97;0.43;;;19.60;86.30;;;;;;4991375;28;20479;-73
2023/06/02 16:15:40;;;;;;;0.63;0.63;;;19.60;87.00;;;;;;4982475;28;20470;-75
2023/06/02 16:18:07;;;;;;;0.50;0.50;;;19.60;86.80;;;;;;4983245;28;20521;-75
2023/06/02 16:20:33;;;;;;;2.10;0.80;;;19.50;86.80;;;;;;4984843;28;20483;-75
2023/06/02 16:23:16;;;;;;;0.40;0.40;;;19.50;86.80;;;;;;4991466;28;20932;-75
2023/06/02 16:25:50;;;;;;;0.20;0.20;;;19.60;86.70;;;;;;4990808;28;20553;-76
2023/06/02 16:28:22;;;;;;;0.33;0.33;;;19.60;86.10;;;;;;4986200;28;20467;-75
2023/06/02 16:30:52;;;;;;;1.33;1.23;;;19.40;85.50;;;;;;4984854;28;20530;-74
2023/06/02 16:33:23;;;;;;;0.60;0.60;;;19.50;86.80;;;;;;4988436;28;20494;-76
2023/06/02 16:35:59;;;;;;;0.40;0.40;;;19.40;86.60;;;;;;4991083;28;20978;-74
2023/06/02 16:38:33;;;;;;;0.30;0.30;;;19.40;86.40;;;;;;4989911;28;20466;-75
2023/06/02 16:41:00;;;;;;;0.30;0.30;;;19.20;85.50;;;;;;4991375;28;20467;-75
2023/06/02 16:43:39;;;;;;;0.40;0.40;;;19.00;85.10;;;;;;4987202;28;20487;-76
2023/06/02 16:46:15;;;;;;;2.87;0.50;;;19.00;85.90;;;;;;4979474;28;20483;-75
2023/06/02 16:49:01;;;;;;;0.30;0.20;;;19.00;85.40;;;;;;4981412;28;20474;-75
2023/06/02 16:51:37;;;;;;;0.30;0.30;;;19.10;84.70;;;;;;4977976;28;20753;-75
2023/06/02 16:54:15;;;;;;;0.20;0.20;;;19.20;84.70;;;;;;4973054;28;20609;-76
2023/06/02 16:56:46;;;;;;;0.20;0.20;;;19.20;83.50;;;;;;4984707;28;20463;-75